createdAt,value
2023-12-07T00:00:26.652Z,28.83
2023-12-07T00:00:58.164Z,28.78
2023-12-07T00:01:29.673Z,28.56
2023-12-07T00:02:01.214Z,28.76
2023-12-07T00:02:32.710Z,28.55
2023-12-07T00:03:04.285Z,28.68
2023-12-07T00:03:35.760Z,28.74
2023-12-07T00:04:07.193Z,28.50
2023-12-07T00:04:38.560Z,28.77
2023-12-07T00:05:09.952Z,28.72
2023-12-07T00:05:41.348Z,28.62
2023-12-07T00:06:12.817Z,28.58
2023-12-07T00:06:44.205Z,28.78
2023-12-07T00:07:15.636Z,28.44
2023-12-07T00:07:47.051Z,28.69
2023-12-07T00:08:18.496Z,28.59
2023-12-07T00:08:49.899Z,28.55
2023-12-07T00:09:21.276Z,28.65
2023-12-07T00:09:52.672Z,28.54
2023-12-07T00:10:24.201Z,28.56
2023-12-07T00:10:55.666Z,28.72
2023-12-07T00:11:27.231Z,28.77
2023-12-07T00:11:58.637Z,28.62
2023-12-07T00:12:30.115Z,28.66
2023-12-07T00:13:01.754Z,28.69
2023-12-07T00:13:33.288Z,28.78
2023-12-07T00:14:04.726Z,28.80
2023-12-07T00:14:36.117Z,28.57
2023-12-07T00:15:07.821Z,28.69
2023-12-07T00:15:39.197Z,28.50
2023-12-07T00:16:10.886Z,28.54
2023-12-07T00:16:42.286Z,28.51
2023-12-07T00:17:13.753Z,28.76
2023-12-07T00:17:45.229Z,28.65
2023-12-07T00:18:16.691Z,28.54
2023-12-07T00:18:48.059Z,28.73
2023-12-07T00:19:19.564Z,28.53
2023-12-07T00:19:51.499Z,28.48
2023-12-07T00:20:22.920Z,28.64
2023-12-07T00:20:54.301Z,28.68
2023-12-07T00:21:25.770Z,28.73
2023-12-07T00:21:57.268Z,28.81
2023-12-07T00:22:28.884Z,28.74
2023-12-07T00:23:00.259Z,28.66
2023-12-07T00:23:31.631Z,28.80
2023-12-07T00:24:03.015Z,28.47
2023-12-07T00:24:34.394Z,28.50
2023-12-07T00:25:06.118Z,28.42
2023-12-07T00:25:37.734Z,28.66
2023-12-07T00:26:09.107Z,28.64
2023-12-07T00:26:40.641Z,28.49
2023-12-07T00:27:12.108Z,28.79
2023-12-07T00:27:43.507Z,28.54
2023-12-07T00:28:14.916Z,28.69
2023-12-07T00:28:46.356Z,28.59
2023-12-07T00:29:17.734Z,28.56
2023-12-07T00:29:49.208Z,28.65
2023-12-07T00:30:20.656Z,28.49
2023-12-07T00:30:52.018Z,28.69
2023-12-07T00:31:23.545Z,28.68
2023-12-07T00:31:54.969Z,28.71
2023-12-07T00:32:26.685Z,28.46
2023-12-07T00:32:58.297Z,28.39
2023-12-07T00:33:29.673Z,28.69
2023-12-07T00:34:01.060Z,28.65
2023-12-07T00:34:32.606Z,28.55
2023-12-07T00:35:04.330Z,28.65
2023-12-07T00:35:35.879Z,28.55
2023-12-07T00:36:07.492Z,28.72
2023-12-07T00:36:38.927Z,28.92
2023-12-07T00:37:10.304Z,28.66
2023-12-07T00:37:41.782Z,28.72
2023-12-07T00:38:13.218Z,28.57
2023-12-07T00:38:44.581Z,28.87
2023-12-07T00:39:15.915Z,28.73
2023-12-07T00:39:47.346Z,28.59
2023-12-07T00:40:18.726Z,28.64
2023-12-07T00:40:50.149Z,28.66
2023-12-07T00:41:21.535Z,28.44
2023-12-07T00:41:52.908Z,28.73
2023-12-07T00:42:24.529Z,28.47
2023-12-07T00:42:56.208Z,28.57
2023-12-07T00:43:27.628Z,28.67
2023-12-07T00:43:59.109Z,28.55
2023-12-07T00:44:30.511Z,28.50
2023-12-07T00:45:02.072Z,28.54
2023-12-07T00:45:33.518Z,28.54
2023-12-07T00:46:05.007Z,28.64
2023-12-07T00:46:36.462Z,28.74
2023-12-07T00:47:07.836Z,28.61
2023-12-07T00:47:39.251Z,28.65
2023-12-07T00:48:10.670Z,28.55
2023-12-07T00:48:42.151Z,28.52
2023-12-07T00:49:13.590Z,28.57
2023-12-07T00:49:45.062Z,28.58
2023-12-07T00:50:16.463Z,28.65
2023-12-07T00:50:47.835Z,28.37
2023-12-07T00:51:19.334Z,28.49
2023-12-07T00:51:50.738Z,28.50
2023-12-07T00:52:22.497Z,28.31
2023-12-07T00:52:54.328Z,28.46
2023-12-07T00:53:25.671Z,28.47
2023-12-07T00:53:57.031Z,28.79
2023-12-07T00:54:28.408Z,28.61
2023-12-07T00:55:10.847Z,28.45
2023-12-07T00:55:43.857Z,28.31
2023-12-07T00:56:15.383Z,28.52
2023-12-07T00:56:46.844Z,28.72
2023-12-07T00:57:18.204Z,28.50
2023-12-07T00:57:49.573Z,28.38
2023-12-07T00:58:21.296Z,28.66
2023-12-07T00:58:52.717Z,28.51
2023-12-07T00:59:24.200Z,28.63
2023-12-07T00:59:55.615Z,28.59
2023-12-07T01:00:28.229Z,28.52
2023-12-07T01:00:59.777Z,28.40
2023-12-07T01:01:31.246Z,28.58
2023-12-07T01:02:02.752Z,28.49
2023-12-07T01:02:34.210Z,28.25
2023-12-07T01:03:05.657Z,28.59
2023-12-07T01:03:37.098Z,28.50
2023-12-07T01:04:08.516Z,28.54
2023-12-07T01:04:40.125Z,28.47
2023-12-07T01:05:11.676Z,28.49
2023-12-07T01:05:43.173Z,28.36
2023-12-07T01:06:14.841Z,28.49
2023-12-07T01:06:46.400Z,28.37
2023-12-07T01:07:17.882Z,28.51
2023-12-07T01:07:49.361Z,28.48
2023-12-07T01:08:21.023Z,28.45
2023-12-07T01:08:52.483Z,28.66
2023-12-07T01:09:23.981Z,28.58
2023-12-07T01:09:55.406Z,28.55
2023-12-07T01:10:26.882Z,28.58
2023-12-07T01:10:58.306Z,28.40
2023-12-07T01:11:29.751Z,28.39
2023-12-07T01:12:01.114Z,28.36
2023-12-07T01:12:32.525Z,28.62
2023-12-07T01:13:04.023Z,28.34
2023-12-07T01:13:36.012Z,28.31
2023-12-07T01:14:07.422Z,28.37
2023-12-07T01:14:38.778Z,28.65
2023-12-07T01:15:10.173Z,28.28
2023-12-07T01:15:41.548Z,28.36
2023-12-07T01:16:12.969Z,28.39
2023-12-07T01:16:44.600Z,28.50
2023-12-07T01:17:15.948Z,28.56
2023-12-07T01:17:47.294Z,28.41
2023-12-07T01:18:18.743Z,28.45
2023-12-07T01:18:50.248Z,28.62
2023-12-07T01:19:22.048Z,28.32
2023-12-07T01:19:53.472Z,28.60
2023-12-07T01:20:24.864Z,28.48
2023-12-07T01:20:56.402Z,28.34
2023-12-07T01:21:27.797Z,28.48
2023-12-07T01:21:59.524Z,28.36
2023-12-07T01:22:30.970Z,28.39
2023-12-07T01:23:02.402Z,28.38
2023-12-07T01:23:33.965Z,28.32
2023-12-07T01:24:13.385Z,28.40
2023-12-07T01:24:47.704Z,28.53
2023-12-07T01:25:19.350Z,28.26
2023-12-07T01:25:50.836Z,28.38
2023-12-07T01:26:22.265Z,28.59
2023-12-07T01:26:53.659Z,28.59
2023-12-07T01:27:25.176Z,28.59
2023-12-07T01:27:56.769Z,28.55
2023-12-07T01:28:28.264Z,28.43
2023-12-07T01:28:59.793Z,28.42
2023-12-07T01:29:31.189Z,28.48
2023-12-07T01:30:02.710Z,28.29
2023-12-07T01:30:34.141Z,28.33
2023-12-07T01:31:05.551Z,28.41
2023-12-07T01:31:37.049Z,28.60
2023-12-07T01:32:08.480Z,28.51
2023-12-07T01:32:39.847Z,28.51
2023-12-07T01:33:11.379Z,28.69
2023-12-07T01:33:42.942Z,28.42
2023-12-07T01:34:14.426Z,28.66
2023-12-07T01:34:45.952Z,28.61
2023-12-07T01:35:17.410Z,28.25
2023-12-07T01:35:48.833Z,28.35
2023-12-07T01:36:20.225Z,28.45
2023-12-07T01:36:51.606Z,28.49
2023-12-07T01:37:23.003Z,28.43
2023-12-07T01:37:54.407Z,28.52
2023-12-07T01:38:25.789Z,28.52
2023-12-07T01:38:57.290Z,28.42
2023-12-07T01:39:28.670Z,28.48
2023-12-07T01:40:00.045Z,28.49
2023-12-07T01:40:31.514Z,28.56
2023-12-07T01:41:02.932Z,28.47
2023-12-07T01:41:34.360Z,28.48
2023-12-07T01:42:05.768Z,28.54
2023-12-07T01:42:40.259Z,28.30
2023-12-07T01:43:11.660Z,28.48
2023-12-07T01:43:46.559Z,28.33
2023-12-07T01:44:18.026Z,28.46
2023-12-07T01:44:49.463Z,28.25
2023-12-07T01:45:21.553Z,28.52
2023-12-07T01:45:53.162Z,28.33
2023-12-07T01:46:24.679Z,28.40
2023-12-07T01:46:56.215Z,28.43
2023-12-07T01:47:27.662Z,28.30
2023-12-07T01:47:59.111Z,28.28
2023-12-07T01:48:30.802Z,28.26
2023-12-07T01:49:02.363Z,28.29
2023-12-07T01:49:33.890Z,28.33
2023-12-07T01:50:05.816Z,28.34
2023-12-07T01:50:37.385Z,28.32
2023-12-07T01:51:08.775Z,28.47
2023-12-07T01:51:40.345Z,28.54
2023-12-07T01:52:11.916Z,28.33
2023-12-07T01:52:46.751Z,28.36
2023-12-07T01:53:18.111Z,28.20
2023-12-07T01:53:49.551Z,28.32
2023-12-07T01:54:20.997Z,28.59
2023-12-07T01:54:52.476Z,28.15
2023-12-07T01:55:23.974Z,28.47
2023-12-07T01:55:55.366Z,28.34
2023-12-07T01:56:26.743Z,28.36
2023-12-07T01:56:58.113Z,28.11
2023-12-07T01:57:29.473Z,28.47
2023-12-07T01:58:00.875Z,28.21
2023-12-07T01:58:32.281Z,28.41
2023-12-07T01:59:03.667Z,28.20
2023-12-07T01:59:35.128Z,28.12
2023-12-07T02:00:06.982Z,28.34
2023-12-07T02:00:38.390Z,28.42
2023-12-07T02:01:09.995Z,28.21
2023-12-07T02:01:41.515Z,28.43
2023-12-07T02:02:13.015Z,28.19
2023-12-07T02:02:44.966Z,28.41
2023-12-07T02:03:16.451Z,28.32
2023-12-07T02:03:47.899Z,28.46
2023-12-07T02:04:19.468Z,28.34
2023-12-07T02:04:51.044Z,28.38
2023-12-07T02:05:22.613Z,28.35
2023-12-07T02:05:54.381Z,28.11
2023-12-07T02:06:25.782Z,28.35
2023-12-07T02:06:58.224Z,28.10
2023-12-07T02:07:29.697Z,28.38
2023-12-07T02:08:01.221Z,28.20
2023-12-07T02:08:32.627Z,28.28
2023-12-07T02:09:04.136Z,28.07
2023-12-07T02:09:35.533Z,28.28
2023-12-07T02:10:07.164Z,28.25
2023-12-07T02:10:38.695Z,28.11
2023-12-07T02:11:10.215Z,28.14
2023-12-07T02:11:41.847Z,28.34
2023-12-07T02:12:13.369Z,28.20
2023-12-07T02:12:44.722Z,28.21
2023-12-07T02:13:16.143Z,28.50
2023-12-07T02:13:47.503Z,28.19
2023-12-07T02:14:18.925Z,28.25
2023-12-07T02:14:50.361Z,28.38
2023-12-07T02:15:21.751Z,28.35
2023-12-07T02:15:54.038Z,28.32
2023-12-07T02:16:31.501Z,28.31
2023-12-07T02:17:06.981Z,28.33
2023-12-07T02:17:50.780Z,28.21
2023-12-07T02:18:22.208Z,27.90
2023-12-07T02:18:56.917Z,28.26
2023-12-07T02:19:28.329Z,28.19
2023-12-07T02:20:05.190Z,28.27
2023-12-07T02:20:40.879Z,28.24
2023-12-07T02:21:16.856Z,28.39
2023-12-07T02:21:57.119Z,28.26
2023-12-07T02:22:43.088Z,28.06
2023-12-07T02:23:14.985Z,28.04
2023-12-07T02:23:49.926Z,28.17
2023-12-07T02:24:23.988Z,27.97
2023-12-07T02:25:14.133Z,28.04
2023-12-07T02:25:46.004Z,28.17
2023-12-07T02:26:17.941Z,28.03
2023-12-07T02:26:50.210Z,28.19
2023-12-07T02:27:33.652Z,28.06
2023-12-07T02:28:05.085Z,28.12
2023-12-07T02:28:36.692Z,28.29
2023-12-07T02:29:08.105Z,28.10
2023-12-07T02:29:39.460Z,28.06
2023-12-07T02:30:11.436Z,28.19
2023-12-07T02:30:42.804Z,27.92
2023-12-07T02:31:14.164Z,28.12
2023-12-07T02:31:45.601Z,27.89
2023-12-07T02:32:16.987Z,28.02
2023-12-07T02:32:48.549Z,27.97
2023-12-07T02:33:20.103Z,27.93
2023-12-07T02:33:51.725Z,28.07
2023-12-07T02:34:23.199Z,27.89
2023-12-07T02:34:54.727Z,27.85
2023-12-07T02:35:26.271Z,27.83
2023-12-07T02:35:57.648Z,28.08
2023-12-07T02:36:29.032Z,27.96
2023-12-07T02:37:00.548Z,28.05
2023-12-07T02:37:34.228Z,28.02
2023-12-07T02:38:06.370Z,28.27
2023-12-07T02:38:37.719Z,28.16
2023-12-07T02:39:09.117Z,27.99
2023-12-07T02:39:40.605Z,27.97
2023-12-07T02:40:12.368Z,28.15
2023-12-07T02:40:43.894Z,28.17
2023-12-07T02:41:15.300Z,27.90
2023-12-07T02:41:46.712Z,28.08
2023-12-07T02:42:18.085Z,28.00
2023-12-07T02:42:49.461Z,28.05
2023-12-07T02:43:20.930Z,27.98
2023-12-07T02:43:52.332Z,28.01
2023-12-07T02:44:23.761Z,27.91
2023-12-07T02:44:55.201Z,27.83
2023-12-07T02:45:26.577Z,27.97
2023-12-07T02:45:57.933Z,27.95
2023-12-07T02:46:29.299Z,28.20
2023-12-07T02:47:00.674Z,28.25
2023-12-07T02:47:32.117Z,27.94
2023-12-07T02:48:03.599Z,28.22
2023-12-07T02:48:35.131Z,27.98
2023-12-07T02:49:06.647Z,27.98
2023-12-07T02:49:38.092Z,27.95
2023-12-07T02:50:09.837Z,28.02
2023-12-07T02:50:41.197Z,27.93
2023-12-07T02:51:12.569Z,28.04
2023-12-07T02:51:43.963Z,27.98
2023-12-07T02:52:15.425Z,28.00
2023-12-07T02:52:46.888Z,28.08
2023-12-07T02:53:18.725Z,27.90
2023-12-07T02:53:50.286Z,27.94
2023-12-07T02:54:21.624Z,27.85
2023-12-07T02:54:53.017Z,27.73
2023-12-07T02:55:24.425Z,27.99
2023-12-07T02:55:55.837Z,27.88
2023-12-07T02:56:27.185Z,28.08
2023-12-07T02:56:58.598Z,27.82
2023-12-07T02:57:30.034Z,27.92
2023-12-07T02:58:01.427Z,27.74
2023-12-07T02:58:32.916Z,28.11
2023-12-07T02:59:04.305Z,27.93
2023-12-07T02:59:35.756Z,28.14
2023-12-07T03:00:07.764Z,28.06
2023-12-07T03:00:39.435Z,27.84
2023-12-07T03:01:10.876Z,27.91
2023-12-07T03:01:42.385Z,28.15
2023-12-07T03:02:13.824Z,27.80
2023-12-07T03:02:45.227Z,27.77
2023-12-07T03:03:16.788Z,27.81
2023-12-07T03:03:48.189Z,28.02
2023-12-07T03:04:19.665Z,27.90
2023-12-07T03:04:51.186Z,27.81
2023-12-07T03:05:22.653Z,27.77
2023-12-07T03:05:54.165Z,28.20
2023-12-07T03:06:25.582Z,28.12
2023-12-07T03:06:57.056Z,27.89
2023-12-07T03:07:28.541Z,27.98
2023-12-07T03:07:59.979Z,27.90
2023-12-07T03:08:31.334Z,27.83
2023-12-07T03:09:02.707Z,27.82
2023-12-07T03:09:34.091Z,27.82
2023-12-07T03:10:05.853Z,27.81
2023-12-07T03:10:37.361Z,27.95
2023-12-07T03:11:08.804Z,28.06
2023-12-07T03:11:41.410Z,27.78
2023-12-07T03:12:13.139Z,27.91
2023-12-07T03:12:44.536Z,27.77
2023-12-07T03:13:15.976Z,27.91
2023-12-07T03:13:47.529Z,27.79
2023-12-07T03:14:19.060Z,28.04
2023-12-07T03:14:50.513Z,27.93
2023-12-07T03:15:22.067Z,27.89
2023-12-07T03:15:53.443Z,27.96
2023-12-07T03:16:25.023Z,27.94
2023-12-07T03:16:56.468Z,27.93
2023-12-07T03:17:27.908Z,27.92
2023-12-07T03:17:59.341Z,27.80
2023-12-07T03:18:30.752Z,27.90
2023-12-07T03:19:02.480Z,28.05
2023-12-07T03:19:33.959Z,27.68
2023-12-07T03:20:05.616Z,27.86
2023-12-07T03:20:36.977Z,27.88
2023-12-07T03:21:08.358Z,27.82
2023-12-07T03:21:40.258Z,27.61
2023-12-07T03:22:11.687Z,27.97
2023-12-07T03:22:43.211Z,27.61
2023-12-07T03:23:14.661Z,27.74
2023-12-07T03:23:46.100Z,27.72
2023-12-07T03:24:17.422Z,27.76
2023-12-07T03:24:49.870Z,27.87
2023-12-07T03:25:21.356Z,27.96
2023-12-07T03:25:52.784Z,27.95
2023-12-07T03:26:24.454Z,27.91
2023-12-07T03:26:55.817Z,27.83
2023-12-07T03:27:27.222Z,27.93
2023-12-07T03:27:58.672Z,27.76
2023-12-07T03:28:30.092Z,27.56
2023-12-07T03:29:01.511Z,27.88
2023-12-07T03:29:32.974Z,27.84
2023-12-07T03:30:04.591Z,27.89
2023-12-07T03:30:36.106Z,27.99
2023-12-07T03:31:07.498Z,27.88
2023-12-07T03:31:38.912Z,27.85
2023-12-07T03:32:10.346Z,27.99
2023-12-07T03:32:41.809Z,28.07
2023-12-07T03:33:13.329Z,28.01
2023-12-07T03:33:44.847Z,27.88
2023-12-07T03:34:16.344Z,27.82
2023-12-07T03:34:47.801Z,27.88
2023-12-07T03:35:19.405Z,27.55
2023-12-07T03:35:50.837Z,27.92
2023-12-07T03:36:22.269Z,27.90
2023-12-07T03:36:53.730Z,27.72
2023-12-07T03:37:25.188Z,27.92
2023-12-07T03:37:56.667Z,27.82
2023-12-07T03:38:28.083Z,27.75
2023-12-07T03:38:59.489Z,27.91
2023-12-07T03:39:31.025Z,27.67
2023-12-07T03:40:02.448Z,27.70
2023-12-07T03:40:33.911Z,27.83
2023-12-07T03:41:05.290Z,27.85
2023-12-07T03:41:36.780Z,27.62
2023-12-07T03:42:48.231Z,27.65
2023-12-07T03:42:59.548Z,27.90
2023-12-07T03:43:30.958Z,27.90
2023-12-07T03:44:02.379Z,27.87
2023-12-07T03:44:33.754Z,27.90
2023-12-07T03:45:05.378Z,27.62
2023-12-07T03:45:36.745Z,27.84
2023-12-07T03:46:08.328Z,27.67
2023-12-07T03:46:39.831Z,27.70
2023-12-07T03:47:11.197Z,27.72
2023-12-07T03:47:42.577Z,27.83
2023-12-07T03:48:14.054Z,27.84
2023-12-07T03:48:45.548Z,27.60
2023-12-07T03:49:16.998Z,27.80
2023-12-07T03:49:48.396Z,27.86
2023-12-07T03:50:19.853Z,27.77
2023-12-07T03:50:51.241Z,27.64
2023-12-07T03:51:22.670Z,27.62
2023-12-07T03:51:54.012Z,27.71
2023-12-07T03:52:25.591Z,27.84
2023-12-07T03:52:57.136Z,27.54
2023-12-07T03:53:28.783Z,27.91
2023-12-07T03:54:00.174Z,27.93
2023-12-07T03:54:31.555Z,27.84
2023-12-07T03:55:03.041Z,27.59
2023-12-07T03:55:34.551Z,27.82
2023-12-07T03:56:06.053Z,27.84
2023-12-07T03:56:37.585Z,27.54
2023-12-07T03:57:08.987Z,27.53
2023-12-07T03:57:40.358Z,27.58
2023-12-07T03:58:11.764Z,27.67
2023-12-07T03:58:43.171Z,27.56
2023-12-07T03:59:14.595Z,27.67
2023-12-07T03:59:45.987Z,27.57
2023-12-07T04:00:17.422Z,27.83
2023-12-07T04:00:48.830Z,27.59
2023-12-07T04:01:25.984Z,27.99
2023-12-07T04:01:57.574Z,27.67
2023-12-07T04:02:28.986Z,27.70
2023-12-07T04:03:00.417Z,27.67
2023-12-07T04:03:32.284Z,27.84
2023-12-07T04:04:03.856Z,27.68
2023-12-07T04:04:35.346Z,27.76
2023-12-07T04:05:06.922Z,27.83
2023-12-07T04:05:38.611Z,27.79
2023-12-07T04:06:10.014Z,27.60
2023-12-07T04:06:41.339Z,27.88
2023-12-07T04:07:12.712Z,27.75
2023-12-07T04:07:44.092Z,27.58
2023-12-07T04:08:15.477Z,27.95
2023-12-07T04:08:46.879Z,27.80
2023-12-07T04:09:18.324Z,27.73
2023-12-07T04:09:49.684Z,27.73
2023-12-07T04:10:21.179Z,27.84
2023-12-07T04:10:52.602Z,27.75
2023-12-07T04:11:24.038Z,27.79
2023-12-07T04:11:55.444Z,27.66
2023-12-07T04:12:26.961Z,27.50
2023-12-07T04:12:58.449Z,27.79
2023-12-07T04:13:29.856Z,27.77
2023-12-07T04:14:01.266Z,27.81
2023-12-07T04:14:32.622Z,27.61
2023-12-07T04:15:04.163Z,27.59
2023-12-07T04:15:35.510Z,27.75
2023-12-07T04:16:07.126Z,27.75
2023-12-07T04:16:38.692Z,27.80
2023-12-07T04:17:10.100Z,27.56
2023-12-07T04:17:41.541Z,27.59
2023-12-07T04:18:13.008Z,27.54
2023-12-07T04:18:44.472Z,27.77
2023-12-07T04:19:15.955Z,27.55
2023-12-07T04:19:47.405Z,27.67
2023-12-07T04:20:18.834Z,27.83
2023-12-07T04:20:50.264Z,27.71
2023-12-07T04:21:21.616Z,27.80
2023-12-07T04:21:52.973Z,27.50
2023-12-07T04:22:24.626Z,27.78
2023-12-07T04:22:56.156Z,27.61
2023-12-07T04:23:27.525Z,27.61
2023-12-07T04:23:58.889Z,27.71
2023-12-07T04:24:30.252Z,27.70
2023-12-07T04:25:01.679Z,27.70
2023-12-07T04:25:33.112Z,27.68
2023-12-07T04:26:04.760Z,27.68
2023-12-07T04:26:36.215Z,27.75
2023-12-07T04:27:07.617Z,27.89
2023-12-07T04:27:39.032Z,27.85
2023-12-07T04:28:10.616Z,27.67
2023-12-07T04:28:42.136Z,27.58
2023-12-07T04:29:13.610Z,27.59
2023-12-07T04:29:45.055Z,27.51
2023-12-07T04:30:16.453Z,27.53
2023-12-07T04:30:47.863Z,27.72
2023-12-07T04:31:19.281Z,27.61
2023-12-07T04:31:50.628Z,27.42
2023-12-07T04:32:22.288Z,27.60
2023-12-07T04:32:53.881Z,27.46
2023-12-07T04:33:25.568Z,27.45
2023-12-07T04:33:57.061Z,27.48
2023-12-07T04:34:28.565Z,27.69
2023-12-07T04:34:59.957Z,27.72
2023-12-07T04:35:31.598Z,27.60
2023-12-07T04:36:03.030Z,27.56
2023-12-07T04:36:34.460Z,27.48
2023-12-07T04:37:05.908Z,27.53
2023-12-07T04:37:37.373Z,27.37
2023-12-07T04:38:08.789Z,27.35
2023-12-07T04:38:40.189Z,27.55
2023-12-07T04:39:11.543Z,27.46
2023-12-07T04:39:42.916Z,27.49
2023-12-07T04:40:14.364Z,27.68
2023-12-07T04:40:45.818Z,27.39
2023-12-07T04:41:17.212Z,27.45
2023-12-07T04:41:48.632Z,27.54
2023-12-07T04:42:20.076Z,27.69
2023-12-07T04:42:51.549Z,27.48
2023-12-07T04:43:23.008Z,27.46
2023-12-07T04:43:54.500Z,27.69
2023-12-07T04:44:25.868Z,27.58
2023-12-07T04:44:57.208Z,27.56
2023-12-07T04:45:29.023Z,27.71
2023-12-07T04:46:00.404Z,27.49
2023-12-07T04:46:31.841Z,27.70
2023-12-07T04:47:03.608Z,27.47
2023-12-07T04:47:35.212Z,27.73
2023-12-07T04:48:06.827Z,27.67
2023-12-07T04:48:38.382Z,27.71
2023-12-07T04:49:09.798Z,27.57
2023-12-07T04:49:41.311Z,27.63
2023-12-07T04:50:12.880Z,27.67
2023-12-07T04:50:44.236Z,27.49
2023-12-07T04:51:15.614Z,27.44
2023-12-07T04:51:46.996Z,27.60
2023-12-07T04:52:18.380Z,27.39
2023-12-07T04:52:49.881Z,27.55
2023-12-07T04:53:21.341Z,27.59
2023-12-07T04:53:53.500Z,27.32
2023-12-07T04:54:27.613Z,27.54
2023-12-07T04:54:59.030Z,27.51
2023-12-07T04:55:30.485Z,27.59
2023-12-07T04:56:01.858Z,27.46
2023-12-07T04:56:33.287Z,27.48
2023-12-07T04:57:04.897Z,27.49
2023-12-07T04:57:36.400Z,27.60
2023-12-07T04:58:07.827Z,27.67
2023-12-07T04:58:39.300Z,27.56
2023-12-07T04:59:10.676Z,27.37
2023-12-07T04:59:42.048Z,27.43
2023-12-07T05:00:13.523Z,27.61
2023-12-07T05:00:44.959Z,27.42
2023-12-07T05:01:16.397Z,27.84
2023-12-07T05:01:48.316Z,27.40
2023-12-07T05:02:19.720Z,27.34
2023-12-07T05:02:51.668Z,27.39
2023-12-07T05:03:23.316Z,27.75
2023-12-07T05:03:54.732Z,27.41
2023-12-07T05:04:26.141Z,27.47
2023-12-07T05:04:57.664Z,27.48
2023-12-07T05:05:29.444Z,27.58
2023-12-07T05:06:00.981Z,27.33
2023-12-07T05:06:32.523Z,27.28
2023-12-07T05:07:04.032Z,27.58
2023-12-07T05:07:35.567Z,27.25
2023-12-07T05:08:06.956Z,27.43
2023-12-07T05:08:39.850Z,27.25
2023-12-07T05:09:11.322Z,27.65
2023-12-07T05:09:42.732Z,27.45
2023-12-07T05:10:14.109Z,27.56
2023-12-07T05:10:45.601Z,27.40
2023-12-07T05:11:17.009Z,27.60
2023-12-07T05:11:48.471Z,27.56
2023-12-07T05:12:19.913Z,27.25
2023-12-07T05:12:51.387Z,27.39
2023-12-07T05:13:22.860Z,27.30
2023-12-07T05:13:54.278Z,27.42
2023-12-07T05:14:25.647Z,27.50
2023-12-07T05:14:57.018Z,27.29
2023-12-07T05:15:28.513Z,27.68
2023-12-07T05:15:59.952Z,27.48
2023-12-07T05:16:31.440Z,27.43
2023-12-07T05:17:02.960Z,27.40
2023-12-07T05:17:34.476Z,27.51
2023-12-07T05:18:06.101Z,27.50
2023-12-07T05:18:37.767Z,27.30
2023-12-07T05:19:09.293Z,27.31
2023-12-07T05:19:40.778Z,27.59
2023-12-07T05:20:12.180Z,27.54
2023-12-07T05:20:43.662Z,27.63
2023-12-07T05:21:15.036Z,27.56
2023-12-07T05:21:46.384Z,27.51
2023-12-07T05:22:17.761Z,27.45
2023-12-07T05:22:49.351Z,27.46
2023-12-07T05:23:21.407Z,27.43
2023-12-07T05:23:52.808Z,27.26
2023-12-07T05:24:24.306Z,27.32
2023-12-07T05:24:55.714Z,27.52
2023-12-07T05:25:27.142Z,27.29
2023-12-07T05:25:58.578Z,27.17
2023-12-07T05:26:29.925Z,27.19
2023-12-07T05:27:01.583Z,27.21
2023-12-07T05:27:33.009Z,27.45
2023-12-07T05:28:04.493Z,27.23
2023-12-07T05:28:37.034Z,27.36
2023-12-07T05:29:08.523Z,27.57
2023-12-07T05:29:40.150Z,27.13
2023-12-07T05:30:11.768Z,27.38
2023-12-07T05:30:44.624Z,27.24
2023-12-07T05:31:17.640Z,27.61
2023-12-07T05:31:52.043Z,27.47
2023-12-07T05:32:23.888Z,27.52
2023-12-07T05:32:55.587Z,27.30
2023-12-07T05:33:27.213Z,27.37
2023-12-07T05:33:58.697Z,27.01
2023-12-07T05:34:30.202Z,27.22
2023-12-07T05:35:01.606Z,27.22
2023-12-07T05:35:32.996Z,27.36
2023-12-07T05:36:04.869Z,27.28
2023-12-07T05:36:36.365Z,27.41
2023-12-07T05:37:07.873Z,27.33
2023-12-07T05:37:39.345Z,27.20
2023-12-07T05:38:10.746Z,27.31
2023-12-07T05:38:42.151Z,27.15
2023-12-07T05:39:13.541Z,27.38
2023-12-07T05:39:44.997Z,27.11
2023-12-07T05:40:16.352Z,27.15
2023-12-07T05:40:47.816Z,27.17
2023-12-07T05:41:19.197Z,27.09
2023-12-07T05:41:50.635Z,27.38
2023-12-07T05:42:22.224Z,27.43
2023-12-07T05:42:53.807Z,27.55
2023-12-07T05:43:25.294Z,27.26
2023-12-07T05:43:56.711Z,27.44
2023-12-07T05:44:28.090Z,27.32
2023-12-07T05:44:59.722Z,27.25
2023-12-07T05:45:31.145Z,27.21
2023-12-07T05:46:02.595Z,27.50
2023-12-07T05:46:34.529Z,27.38
2023-12-07T05:47:05.938Z,27.31
2023-12-07T05:47:37.341Z,27.30
2023-12-07T05:48:08.959Z,27.47
2023-12-07T05:48:40.486Z,27.17
2023-12-07T05:49:12.161Z,27.16
2023-12-07T05:49:43.631Z,27.46
2023-12-07T05:50:15.036Z,27.38
2023-12-07T05:50:46.393Z,27.46
2023-12-07T05:51:17.823Z,27.46
2023-12-07T05:51:49.295Z,27.21
2023-12-07T05:52:20.814Z,27.19
2023-12-07T05:52:52.191Z,27.22
2023-12-07T05:53:23.612Z,27.33
2023-12-07T05:53:55.044Z,27.32
2023-12-07T05:54:26.439Z,27.39
2023-12-07T05:54:57.777Z,27.13
2023-12-07T05:55:29.779Z,27.11
2023-12-07T05:56:04.668Z,27.04
2023-12-07T05:56:36.693Z,27.18
2023-12-07T05:57:08.231Z,27.47
2023-12-07T05:57:39.634Z,27.26
2023-12-07T05:58:11.046Z,27.31
2023-12-07T05:58:42.458Z,27.26
2023-12-07T05:59:14.488Z,27.29
2023-12-07T05:59:45.915Z,27.18
2023-12-07T06:00:17.425Z,27.42
2023-12-07T06:00:49.145Z,27.34
2023-12-07T06:01:20.705Z,27.46
2023-12-07T06:01:52.650Z,27.10
2023-12-07T06:02:24.554Z,27.46
2023-12-07T06:02:56.124Z,27.50
2023-12-07T06:03:27.626Z,27.39
2023-12-07T06:03:59.425Z,27.17
2023-12-07T06:04:31.088Z,27.22
2023-12-07T06:05:05.305Z,27.39
2023-12-07T06:05:39.866Z,27.46
2023-12-07T06:06:11.693Z,27.34
2023-12-07T06:06:43.154Z,27.17
2023-12-07T06:07:14.593Z,27.23
2023-12-07T06:07:46.145Z,27.08
2023-12-07T06:08:17.501Z,27.26
2023-12-07T06:08:48.899Z,27.22
2023-12-07T06:09:20.306Z,27.19
2023-12-07T06:09:51.721Z,27.34
2023-12-07T06:10:23.122Z,27.32
2023-12-07T06:10:54.610Z,27.32
2023-12-07T06:11:26.050Z,27.44
2023-12-07T06:11:57.432Z,27.48
2023-12-07T06:12:31.056Z,27.32
2023-12-07T06:13:02.752Z,27.39
2023-12-07T06:13:34.191Z,27.29
2023-12-07T06:14:05.578Z,27.21
2023-12-07T06:14:37.040Z,27.52
2023-12-07T06:15:08.696Z,27.23
2023-12-07T06:15:40.192Z,27.31
2023-12-07T06:16:14.646Z,27.32
2023-12-07T06:16:46.084Z,27.08
2023-12-07T06:17:17.474Z,27.15
2023-12-07T06:17:49.056Z,27.26
2023-12-07T06:18:22.329Z,27.25
2023-12-07T06:18:53.990Z,27.45
2023-12-07T06:19:25.696Z,27.30
2023-12-07T06:19:57.110Z,27.42
2023-12-07T06:20:28.486Z,27.37
2023-12-07T06:20:59.891Z,27.27
2023-12-07T06:21:31.332Z,27.13
2023-12-07T06:22:02.817Z,27.19
2023-12-07T06:22:34.250Z,27.31
2023-12-07T06:23:05.618Z,27.17
2023-12-07T06:23:37.035Z,27.23
2023-12-07T06:24:08.401Z,27.23
2023-12-07T06:24:39.817Z,27.33
2023-12-07T06:25:11.193Z,27.17
2023-12-07T06:25:42.627Z,27.26
2023-12-07T06:26:14.032Z,27.43
2023-12-07T06:26:45.422Z,27.51
2023-12-07T06:27:16.856Z,27.43
2023-12-07T06:27:48.245Z,27.29
2023-12-07T06:28:19.643Z,27.13
2023-12-07T06:28:51.031Z,27.36
2023-12-07T06:29:22.380Z,27.31
2023-12-07T06:29:53.825Z,27.42
2023-12-07T06:30:25.245Z,27.18
2023-12-07T06:30:56.679Z,27.20
2023-12-07T06:31:28.087Z,27.21
2023-12-07T06:31:59.490Z,27.30
2023-12-07T06:32:30.852Z,27.18
2023-12-07T06:33:02.279Z,27.09
2023-12-07T06:33:34.124Z,27.08
2023-12-07T06:34:05.646Z,27.44
2023-12-07T06:34:40.738Z,27.31
2023-12-07T06:35:12.684Z,27.12
2023-12-07T06:35:44.119Z,27.21
2023-12-07T06:36:24.561Z,27.54
2023-12-07T06:36:55.918Z,27.36
2023-12-07T06:37:27.437Z,27.25
2023-12-07T06:37:58.851Z,27.39
2023-12-07T06:38:30.432Z,27.37
2023-12-07T06:39:01.795Z,27.43
2023-12-07T06:39:33.219Z,27.32
2023-12-07T06:40:04.958Z,27.38
2023-12-07T06:40:36.416Z,27.32
2023-12-07T06:41:07.832Z,27.32
2023-12-07T06:41:39.192Z,27.10
2023-12-07T06:42:10.600Z,27.23
2023-12-07T06:42:42.104Z,27.13
2023-12-07T06:43:13.494Z,27.16
2023-12-07T06:43:44.962Z,27.31
2023-12-07T06:44:16.648Z,27.06
2023-12-07T06:44:48.188Z,27.12
2023-12-07T06:45:19.563Z,27.03
2023-12-07T06:45:51.305Z,27.46
2023-12-07T06:46:22.722Z,27.29
2023-12-07T06:46:54.119Z,27.42
2023-12-07T06:47:25.865Z,27.23
2023-12-07T06:47:57.394Z,27.25
2023-12-07T06:48:28.872Z,27.09
2023-12-07T06:49:00.437Z,27.18